Time;durP1;ratioP1;P1;durP2;ratioP2;P2;SDS_P1;SDS_P2;PMS_P1;PMS_P2;Temp;Humidity;BMP_temperature;BMP_pressure;BME280_temperature;BME280_humidity;BME280_pressure;Samples;Min_cycle;Max_cycle;Signal;HPM_P1;HPM_P2
2022/07/20 00:01:52;;;;;;;6.83;3.03;;;25.30;47.90;;;;;;5094793;28;20055;-69
2022/07/20 00:04:17;;;;;;;6.77;3.50;;;25.30;48.00;;;;;;5076645;28;20044;-69
2022/07/20 00:06:43;;;;;;;6.70;3.27;;;25.20;48.00;;;;;;5094659;28;20127;-69
2022/07/20 00:11:53;;;;;;;6.53;3.13;;;25.10;48.10;;;;;;5094987;28;20056;-70
2022/07/20 00:14:19;;;;;;;6.37;3.23;;;25.00;48.10;;;;;;5093658;28;20052;-69
2022/07/20 00:16:45;;;;;;;9.30;3.00;;;25.00;48.40;;;;;;5094065;28;20044;-69
2022/07/20 00:19:10;;;;;;;5.90;3.00;;;25.00;48.50;;;;;;5094560;28;20047;-69
2022/07/20 00:21:36;;;;;;;7.00;2.80;;;24.90;48.50;;;;;;5094970;28;20460;-70
2022/07/20 00:24:02;;;;;;;6.50;3.20;;;24.90;48.60;;;;;;5094431;28;20048;-69
2022/07/20 00:26:28;;;;;;;9.83;3.57;;;24.80;48.70;;;;;;5094317;28;20114;-69
2022/07/20 00:28:54;;;;;;;10.87;3.30;;;24.80;48.90;;;;;;5094803;28;20482;-69
2022/07/20 00:31:20;;;;;;;8.23;3.13;;;24.80;48.90;;;;;;5094295;28;20040;-69
2022/07/20 00:33:48;;;;;;;7.97;3.37;;;24.70;48.90;;;;;;5094227;28;20052;-69
2022/07/20 00:36:15;;;;;;;5.93;2.87;;;24.70;49.00;;;;;;5094734;28;20048;-69
2022/07/20 00:38:41;;;;;;;8.37;3.23;;;24.70;49.00;;;;;;5093942;28;20147;-69
2022/07/20 00:41:07;;;;;;;8.90;2.87;;;24.60;49.20;;;;;;5094072;28;20056;-69
2022/07/20 00:43:57;;;;;;;6.97;3.50;;;24.60;49.30;;;;;;5094310;28;20105;-70
2022/07/20 00:46:23;;;;;;;10.47;4.17;;;24.60;49.60;;;;;;5093757;28;20044;-69
2022/07/20 00:48:49;;;;;;;6.80;3.43;;;24.50;49.30;;;;;;5093962;28;20044;-69
2022/07/20 00:51:15;;;;;;;6.43;3.13;;;24.50;49.40;;;;;;5093977;28;20094;-69
2022/07/20 00:53:42;;;;;;;8.33;3.20;;;24.40;49.30;;;;;;5094003;28;20101;-70
2022/07/20 00:56:07;;;;;;;5.87;3.20;;;24.40;49.40;;;;;;5094359;28;20387;-69
2022/07/20 00:58:34;;;;;;;7.87;3.27;;;24.40;49.50;;;;;;5093126;28;20056;-69
2022/07/20 01:01:00;;;;;;;9.23;3.40;;;24.40;49.70;;;;;;5094302;28;20044;-69
2022/07/20 01:03:26;;;;;;;6.50;3.43;;;24.40;49.80;;;;;;5093775;28;20055;-69
2022/07/20 01:05:53;;;;;;;7.10;3.20;;;24.30;49.90;;;;;;5093740;28;20048;-69
2022/07/20 01:08:18;;;;;;;5.50;3.30;;;24.30;50.80;;;;;;5093703;28;20044;-69
2022/07/20 01:10:44;;;;;;;9.63;3.70;;;24.30;50.30;;;;;;5127085;27;20127;-69
2022/07/20 01:13:11;;;;;;;10.97;3.50;;;24.30;50.10;;;;;;5092508;28;20044;-69
2022/07/20 01:15:37;;;;;;;7.30;2.90;;;24.20;50.10;;;;;;5093579;28;20083;-69
2022/07/20 01:18:02;;;;;;;8.17;3.57;;;24.20;50.20;;;;;;5093561;28;20483;-69
2022/07/20 01:20:30;;;;;;;13.07;3.80;;;24.10;50.20;;;;;;5092919;28;20040;-69
2022/07/20 01:22:56;;;;;;;9.10;3.53;;;24.10;50.40;;;;;;5093543;28;20109;-69
2022/07/20 01:25:22;;;;;;;8.43;2.97;;;24.00;50.50;;;;;;5093547;28;20044;-69
2022/07/20 01:27:48;;;;;;;8.27;3.10;;;24.00;50.70;;;;;;5093178;28;20480;-70
2022/07/20 01:30:13;;;;;;;6.17;3.00;;;23.90;50.90;;;;;;5093532;28;20052;-69
2022/07/20 01:32:39;;;;;;;8.37;3.37;;;23.90;50.90;;;;;;5093506;28;20050;-69
2022/07/20 01:35:05;;;;;;;9.93;3.40;;;23.90;51.10;;;;;;5094007;28;20055;-69
2022/07/20 01:37:31;;;;;;;7.83;3.40;;;23.80;51.10;;;;;;5094019;28;20044;-69
2022/07/20 01:39:57;;;;;;;6.03;3.37;;;23.80;51.20;;;;;;5093407;28;20051;-69
2022/07/20 01:42:23;;;;;;;7.20;3.33;;;23.80;51.40;;;;;;5092815;28;20044;-69
2022/07/20 01:44:49;;;;;;;7.40;3.00;;;23.80;51.30;;;;;;5093315;28;20056;-69
2022/07/20 01:47:15;;;;;;;7.30;3.47;;;23.80;51.60;;;;;;5093259;28;20040;-69
2022/07/20 01:49:40;;;;;;;6.17;3.23;;;23.70;51.50;;;;;;5093343;28;20052;-69
2022/07/20 01:52:06;;;;;;;10.57;3.53;;;23.70;51.40;;;;;;5093310;28;20052;-69
2022/07/20 01:54:32;;;;;;;9.20;3.53;;;23.70;51.50;;;;;;5093266;28;20051;-69
2022/07/20 01:56:57;;;;;;;9.00;3.47;;;23.70;51.50;;;;;;5093260;28;20181;-69
2022/07/20 01:59:23;;;;;;;7.00;3.67;;;23.60;51.50;;;;;;5091534;28;20036;-69
2022/07/20 02:01:49;;;;;;;10.67;3.93;;;23.60;51.50;;;;;;5091954;28;20048;-73
2022/07/20 02:04:15;;;;;;;7.13;3.17;;;23.60;51.50;;;;;;5092237;28;20046;-69
2022/07/20 02:06:40;;;;;;;7.40;3.43;;;23.50;52.20;;;;;;5093636;28;20052;-69
2022/07/20 02:09:06;;;;;;;7.90;4.00;;;23.50;51.70;;;;;;5093584;28;20051;-69
2022/07/20 02:11:32;;;;;;;8.40;3.40;;;23.40;51.80;;;;;;5093189;28;20098;-69
2022/07/20 02:13:57;;;;;;;6.13;3.23;;;23.40;51.80;;;;;;5093763;28;20127;-69
2022/07/20 02:16:23;;;;;;;6.77;3.17;;;23.40;52.00;;;;;;5095193;28;20056;-69
2022/07/20 02:18:55;;;;;;;8.27;3.30;;;23.30;52.00;;;;;;5097102;28;20050;-69
2022/07/20 02:21:21;;;;;;;8.03;2.90;;;23.30;52.10;;;;;;5097629;28;20147;-69
2022/07/20 02:23:48;;;;;;;8.13;3.87;;;23.30;52.20;;;;;;5097246;28;20488;-69
2022/07/20 02:26:15;;;;;;;7.43;3.53;;;23.30;52.30;;;;;;5096857;28;20391;-69
2022/07/20 02:28:41;;;;;;;8.70;3.63;;;23.30;52.40;;;;;;5096662;28;20097;-69
2022/07/20 02:31:07;;;;;;;9.27;3.80;;;23.20;52.50;;;;;;5096655;28;20040;-69
2022/07/20 02:33:33;;;;;;;9.47;3.30;;;23.20;53.20;;;;;;5096569;28;20102;-69
2022/07/20 02:35:59;;;;;;;8.03;3.37;;;23.20;52.90;;;;;;5096307;28;20523;-69
2022/07/20 02:38:26;;;;;;;9.07;3.17;;;23.10;52.80;;;;;;5096456;28;20373;-69
2022/07/20 02:40:52;;;;;;;7.33;3.70;;;23.10;53.10;;;;;;5096961;28;20040;-69
2022/07/20 02:43:18;;;;;;;7.37;3.77;;;23.00;52.90;;;;;;5096352;28;20095;-69
2022/07/20 02:45:43;;;;;;;8.63;3.33;;;23.00;53.00;;;;;;5096742;28;20135;-69
2022/07/20 02:48:09;;;;;;;7.60;3.70;;;23.00;53.20;;;;;;5096257;28;20043;-69
2022/07/20 02:50:38;;;;;;;7.27;3.50;;;22.90;53.20;;;;;;5096266;28;20097;-70
2022/07/20 02:53:05;;;;;;;11.50;3.63;;;22.90;53.30;;;;;;5096252;28;20040;-69
2022/07/20 02:55:31;;;;;;;7.07;3.50;;;22.90;53.40;;;;;;5095981;28;20051;-69
2022/07/20 02:57:57;;;;;;;7.40;3.80;;;22.90;53.60;;;;;;5096116;28;20123;-73
2022/07/20 03:00:23;;;;;;;6.93;3.70;;;22.90;53.60;;;;;;5096030;28;20123;-69
2022/07/20 03:02:49;;;;;;;5.87;3.80;;;22.80;53.60;;;;;;5096034;28;20051;-69
2022/07/20 03:05:15;;;;;;;8.93;3.30;;;22.80;53.70;;;;;;5094738;28;20076;-69
2022/07/20 03:07:41;;;;;;;8.03;3.70;;;22.80;53.80;;;;;;5095884;28;20079;-69
2022/07/20 03:10:08;;;;;;;7.70;3.60;;;22.70;53.90;;;;;;5095844;28;20044;-69
2022/07/20 03:12:34;;;;;;;9.33;3.60;;;22.70;53.90;;;;;;5096596;28;20044;-69
2022/07/20 03:15:00;;;;;;;8.00;3.73;;;22.70;54.00;;;;;;5094709;28;20433;-73
2022/07/20 03:17:25;;;;;;;9.90;3.70;;;22.70;54.10;;;;;;5095752;28;20036;-69
2022/07/20 03:19:51;;;;;;;7.47;3.90;;;22.60;54.10;;;;;;5077208;28;20090;-69
2022/07/20 03:22:17;;;;;;;5.90;3.40;;;22.60;54.20;;;;;;5094663;28;20044;-69
2022/07/20 03:24:43;;;;;;;7.63;3.73;;;22.60;54.20;;;;;;5061794;28;20098;-69
2022/07/20 03:27:08;;;;;;;7.57;3.33;;;22.60;54.30;;;;;;5094907;28;20036;-69
2022/07/20 03:29:34;;;;;;;6.57;3.80;;;22.60;54.50;;;;;;5095516;28;20040;-69
2022/07/20 03:32:00;;;;;;;9.80;4.00;;;22.60;54.50;;;;;;5128435;27;20052;-69
2022/07/20 03:34:26;;;;;;;7.00;3.43;;;22.50;54.50;;;;;;5095656;28;20052;-69
2022/07/20 03:36:51;;;;;;;8.27;3.73;;;22.50;54.60;;;;;;5095473;28;20036;-69
2022/07/20 03:39:17;;;;;;;7.63;3.70;;;22.50;54.50;;;;;;5095321;28;20051;-69
2022/07/20 03:41:43;;;;;;;6.37;3.30;;;22.50;54.50;;;;;;5095248;28;20052;-69
2022/07/20 03:44:09;;;;;;;7.30;3.70;;;22.50;54.50;;;;;;5095066;28;20052;-69
2022/07/20 03:46:35;;;;;;;7.30;4.00;;;22.50;54.60;;;;;;5094916;28;20102;-69
2022/07/20 03:49:02;;;;;;;7.73;3.87;;;22.50;54.70;;;;;;5093933;28;20044;-69
2022/07/20 03:51:28;;;;;;;8.43;3.77;;;22.50;54.70;;;;;;5093900;28;20051;-69
2022/07/20 03:53:53;;;;;;;7.50;3.63;;;22.50;54.80;;;;;;5095036;28;20130;-69
2022/07/20 03:56:19;;;;;;;6.53;4.03;;;22.50;54.80;;;;;;5095519;28;20131;-69
2022/07/20 03:58:45;;;;;;;16.90;4.03;;;22.50;54.90;;;;;;5095421;28;20494;-69
2022/07/20 04:01:11;;;;;;;10.33;3.60;;;22.40;55.10;;;;;;5094850;28;20127;-69
2022/07/20 04:03:36;;;;;;;7.93;3.67;;;22.50;55.10;;;;;;5095401;28;20058;-69
2022/07/20 04:06:03;;;;;;;7.63;3.40;;;22.50;55.10;;;;;;5095246;28;20051;-69
2022/07/20 04:08:29;;;;;;;9.80;4.07;;;22.50;55.10;;;;;;5095480;28;20101;-69
2022/07/20 04:10:55;;;;;;;10.00;4.00;;;22.50;55.10;;;;;;5094552;28;20086;-69
2022/07/20 04:13:20;;;;;;;6.73;3.73;;;22.50;55.20;;;;;;5094610;28;20044;-69
2022/07/20 04:15:46;;;;;;;7.33;3.47;;;22.50;55.10;;;;;;5094007;28;20130;-69
2022/07/20 04:18:16;;;;;;;9.80;4.30;;;22.50;55.10;;;;;;5093558;28;20055;-69
2022/07/20 04:20:42;;;;;;;12.27;4.07;;;22.50;55.20;;;;;;5095028;28;20120;-69
2022/07/20 04:23:08;;;;;;;6.83;3.50;;;22.50;55.10;;;;;;5094409;28;20128;-69
2022/07/20 04:25:33;;;;;;;9.13;4.03;;;22.50;55.10;;;;;;5094436;28;20090;-69
2022/07/20 04:27:59;;;;;;;9.03;3.67;;;22.60;55.00;;;;;;5094592;28;20047;-69
2022/07/20 04:30:25;;;;;;;8.93;3.50;;;22.60;55.50;;;;;;5094350;28;20052;-69
2022/07/20 04:32:51;;;;;;;9.63;3.20;;;22.60;55.70;;;;;;5094295;28;20094;-69
2022/07/20 04:35:17;;;;;;;8.67;3.93;;;22.60;55.90;;;;;;5094244;28;20044;-69
2022/07/20 04:37:42;;;;;;;9.87;3.97;;;22.60;55.80;;;;;;5094447;28;20118;-69
2022/07/20 04:40:08;;;;;;;5.23;3.30;;;22.60;55.90;;;;;;5093086;28;20054;-69
2022/07/20 04:42:34;;;;;;;9.47;3.87;;;22.70;55.90;;;;;;5094328;28;20087;-69
2022/07/20 04:45:00;;;;;;;9.03;4.00;;;22.70;55.80;;;;;;5093699;28;20083;-69
2022/07/20 04:47:26;;;;;;;6.77;3.27;;;22.70;55.80;;;;;;5094482;28;20066;-69
2022/07/20 04:49:51;;;;;;;10.03;3.77;;;22.70;55.90;;;;;;5094540;28;20106;-69
2022/07/20 04:52:17;;;;;;;6.73;3.50;;;22.80;55.80;;;;;;5093662;28;20055;-69
2022/07/20 04:54:43;;;;;;;7.17;3.50;;;22.80;56.00;;;;;;5094503;28;20079;-69
2022/07/20 04:57:09;;;;;;;7.70;3.63;;;22.90;56.30;;;;;;5092917;28;20526;-69
2022/07/20 04:59:37;;;;;;;8.00;3.60;;;22.90;56.20;;;;;;5093813;28;20048;-69
2022/07/20 05:02:03;;;;;;;10.30;3.90;;;23.00;56.00;;;;;;5093612;28;20147;-70
2022/07/20 05:04:29;;;;;;;6.60;3.70;;;23.10;56.20;;;;;;5094006;28;20455;-69
2022/07/20 05:06:55;;;;;;;7.23;3.90;;;23.20;56.30;;;;;;5093688;28;20079;-69
2022/07/20 05:09:21;;;;;;;9.63;3.73;;;23.20;56.20;;;;;;5094262;28;20135;-69
2022/07/20 05:11:46;;;;;;;7.93;3.67;;;23.30;56.30;;;;;;5092715;28;20130;-69
2022/07/20 05:14:12;;;;;;;9.13;3.47;;;23.40;56.60;;;;;;5093723;28;20051;-69
2022/07/20 05:16:38;;;;;;;7.17;3.60;;;23.60;56.10;;;;;;5093613;28;20032;-69
2022/07/20 05:19:04;;;;;;;7.87;4.07;;;23.70;55.30;;;;;;5094397;28;20040;-69
2022/07/20 05:21:30;;;;;;;7.97;4.33;;;23.80;55.00;;;;;;5093571;28;20403;-69
2022/07/20 05:23:56;;;;;;;6.40;3.90;;;23.90;55.10;;;;;;5093561;28;20472;-69
2022/07/20 05:26:21;;;;;;;7.87;3.60;;;24.00;54.40;;;;;;5093475;28;20090;-69
2022/07/20 05:28:47;;;;;;;5.77;3.27;;;24.20;54.60;;;;;;5092585;28;20047;-69
2022/07/20 05:31:13;;;;;;;8.50;3.77;;;24.30;54.40;;;;;;5093555;28;20054;-70
2022/07/20 05:33:41;;;;;;;7.03;3.50;;;24.50;54.20;;;;;;5094025;28;20086;-69
2022/07/20 05:36:07;;;;;;;10.37;4.20;;;24.60;53.70;;;;;;5093460;28;20090;-69
2022/07/20 05:38:33;;;;;;;7.30;3.50;;;24.70;53.20;;;;;;5093421;28;20127;-69
2022/07/20 05:40:58;;;;;;;8.53;4.17;;;24.80;53.10;;;;;;5092294;28;20471;-69
2022/07/20 05:43:24;;;;;;;8.60;4.00;;;25.00;52.90;;;;;;5093385;28;20048;-69
2022/07/20 05:45:50;;;;;;;8.30;3.80;;;25.10;52.80;;;;;;5092901;28;20070;-69
2022/07/20 05:48:16;;;;;;;8.57;4.33;;;25.30;52.70;;;;;;5093824;28;20127;-69
2022/07/20 05:50:43;;;;;;;6.67;3.97;;;25.40;53.50;;;;;;5096957;28;20147;-69
2022/07/20 05:53:10;;;;;;;12.57;4.10;;;25.50;53.20;;;;;;5097377;28;20048;-69
2022/07/20 05:55:37;;;;;;;7.97;4.27;;;25.80;54.10;;;;;;5096303;28;20047;-69
2022/07/20 05:58:04;;;;;;;8.33;3.77;;;26.60;54.00;;;;;;5097324;28;20040;-69
2022/07/20 06:00:30;;;;;;;7.60;4.10;;;;;;;;;;5096926;28;20426;-70
2022/07/20 06:02:56;;;;;;;7.27;3.80;;;30.00;45.40;;;;;;5097232;28;20081;-70
2022/07/20 06:05:22;;;;;;;10.50;3.77;;;31.10;43.00;;;;;;5097747;28;20044;-70
2022/07/20 06:07:48;;;;;;;8.30;4.63;;;31.30;45.90;;;;;;5096053;28;20197;-70
2022/07/20 06:10:14;;;;;;;6.60;3.83;;;;;;;;;;5097104;28;20048;-70
2022/07/20 06:12:40;;;;;;;8.00;4.00;;;32.80;42.30;;;;;;5096991;28;20134;-69
2022/07/20 06:15:06;;;;;;;5.88;4.00;;;33.50;72.60;;;;;;5096966;28;20123;-70
2022/07/20 06:17:36;;;;;;;7.60;4.00;;;34.00;73.30;;;;;;5096951;28;20197;-70
2022/07/20 06:20:11;;;;;;;9.30;3.50;;;34.70;36.70;;;;;;5096909;28;20525;-70
2022/07/20 06:22:38;;;;;;;10.35;4.55;;;34.90;39.00;;;;;;5096931;28;20048;-70
2022/07/20 06:25:06;;;;;;;14.60;4.15;;;35.40;38.30;;;;;;5096821;28;20084;-70
2022/07/20 06:27:32;;;;;;;8.05;3.90;;;35.80;37.60;;;;;;5096652;28;20032;-71
2022/07/20 06:29:59;;;;;;;10.00;3.83;;;36.10;37.20;;;;;;5096767;28;20075;-70
2022/07/20 06:32:25;;;;;;;7.72;4.03;;;;;;;;;;5095490;28;20112;-70
2022/07/20 06:34:51;;;;;;;7.75;3.75;;;37.20;35.90;;;;;;5096609;28;20086;-70
2022/07/20 06:37:17;;;;;;;7.70;4.00;;;;;;;;;;5095572;28;20091;-70
2022/07/20 06:39:43;;;;;;;12.40;4.40;;;;;;;;;;5096275;28;20408;-68
2022/07/20 06:42:09;;;;;;;14.50;5.30;;;;;;;;;;5096871;28;20044;-68
2022/07/20 06:44:35;;;;;;;13.13;5.45;;;38.50;34.20;;;;;;5094731;28;20054;-68
2022/07/20 06:47:02;;;;;;;10.90;6.00;;;38.60;35.00;;;;;;5095928;28;20059;-70
2022/07/20 06:49:28;;;;;;;12.27;6.63;;;;;;;;;;5096507;28;20093;-68
2022/07/20 06:51:54;;;;;;;13.35;7.25;;;;;;;;;;5096059;28;20048;-69
2022/07/20 06:54:20;;;;;;;11.38;7.57;;;39.40;64.20;;;;;;5095592;28;20067;-69
2022/07/20 06:56:45;;;;;;;14.10;7.47;;;39.40;37.00;;;;;;5094512;28;20468;-69
2022/07/20 06:59:11;;;;;;;17.42;8.82;;;39.20;38.00;;;;;;5095722;28;20052;-68
2022/07/20 07:01:37;;;;;;;16.58;8.43;;;39.40;37.60;;;;;;5096497;28;20456;-69
2022/07/20 07:04:03;;;;;;;16.10;9.05;;;39.30;38.00;;;;;;5096617;28;20055;-68
2022/07/20 07:06:32;;;;;;;11.90;9.32;;;39.30;36.00;;;;;;5095860;28;20388;-68
2022/07/20 07:08:59;;;;;;;16.98;9.93;;;;;;;;;;5095458;28;20375;-68
2022/07/20 07:11:25;;;;;;;18.65;9.43;;;;;;;;;;5095278;28;20043;-68
2022/07/20 07:13:51;;;;;;;14.00;10.05;;;40.00;34.70;;;;;;5095148;28;20488;-68
2022/07/20 07:16:17;;;;;;;16.85;10.07;;;40.00;35.50;;;;;;5095167;28;20055;-68
2022/07/20 07:18:42;;;;;;;12.35;9.57;;;40.10;35.70;;;;;;5095320;28;20049;-68
2022/07/20 07:21:09;;;;;;;18.35;10.77;;;;;;;;;;5095784;28;20059;-68
2022/07/20 07:23:35;;;;;;;16.10;10.35;;;;;;;;;;5095302;28;20130;-72
2022/07/20 07:26:01;;;;;;;20.88;9.77;;;;;;;;;;5095585;28;20067;-69
2022/07/20 07:28:27;;;;;;;21.30;10.27;;;;;;;;;;5095482;28;20044;-68
2022/07/20 07:30:53;;;;;;;18.10;11.52;;;;;;;;;;5095496;28;20043;-68
2022/07/20 07:33:24;;;;;;;23.20;11.00;;;;;;;;;;5095455;28;20044;-68
2022/07/20 07:35:50;;;;;;;22.70;11.10;;;;;;;;;;5096231;28;20058;-68
2022/07/20 07:38:16;;;;;;;15.07;11.73;;;;;;;;;;5095406;28;20132;-68
2022/07/20 07:40:42;;;;;;;18.52;12.38;;;40.60;35.10;;;;;;5095878;28;20422;-67
2022/07/20 07:43:08;;;;;;;18.10;12.02;;;;;;;;;;5094590;28;20040;-68
2022/07/20 07:45:34;;;;;;;20.50;13.85;;;41.00;35.30;;;;;;5095857;28;20059;-67
2022/07/20 07:48:00;;;;;;;21.40;14.90;;;41.00;35.70;;;;;;5095126;28;20430;-68
2022/07/20 07:50:25;;;;;;;25.35;14.35;;;40.90;35.90;;;;;;5095169;28;20142;-67
2022/07/20 07:52:51;;;;;;;21.92;15.50;;;;;;;;;;5094120;28;20449;-68
2022/07/20 07:55:18;;;;;;;22.63;15.88;;;;;;;;;;5095866;28;20105;-68
2022/07/20 07:57:44;;;;;;;22.58;15.40;;;;;;;;;;5095524;28;20127;-67
2022/07/20 08:00:10;;;;;;;21.65;15.40;;;;;;;;;;5094950;28;20048;-68
2022/07/20 08:02:36;;;;;;;25.52;15.85;;;;;;;;;;5094920;28;20055;-67
2022/07/20 08:05:02;;;;;;;23.67;16.15;;;;;;;;;;5094817;28;20044;-68
2022/07/20 08:07:28;;;;;;;18.60;16.25;;;;;;;;;;5094762;28;20083;-68
2022/07/20 08:09:54;;;;;;;21.73;16.08;;;;;;;;;;5093759;28;20083;-68
2022/07/20 08:12:20;;;;;;;23.95;16.33;;;;;;;;;;5094172;28;20395;-67
2022/07/20 08:14:47;;;;;;;21.85;16.55;;;;;;;;;;5094623;28;20104;-69
2022/07/20 08:17:13;;;;;;;25.58;16.85;;;;;;;;;;5095193;28;20040;-69
2022/07/20 08:19:39;;;;;;;19.80;16.10;;;;;;;;;;5094296;28;20396;-69
2022/07/20 08:22:05;;;;;;;20.30;16.73;;;;;;;;;;5093576;28;20395;-70
2022/07/20 08:24:31;;;;;;;22.42;17.38;;;;;;;;;;5094317;28;20408;-71
2022/07/20 08:26:57;;;;;;;18.60;16.60;;;;;;;;;;5094363;28;20044;-74
2022/07/20 08:29:23;;;;;;;23.55;17.33;;;;;;;;;;5094480;28;20055;-70
2022/07/20 08:31:49;;;;;;;25.20;17.77;;;;;;;;;;5094366;28;20101;-69
2022/07/20 08:34:15;;;;;;;23.48;19.00;;;;;;;;;;5094912;28;20105;-71
2022/07/20 08:36:41;;;;;;;20.05;17.95;;;;;;;;;;5095080;28;20040;-70
2022/07/20 08:39:07;;;;;;;22.17;17.42;;;40.50;36.40;;;;;;5094762;28;20083;-70
2022/07/20 08:41:34;;;;;;;20.08;16.85;;;40.60;37.10;;;;;;5095035;28;20141;-70
2022/07/20 08:43:59;;;;;;;23.52;17.67;;;40.40;37.40;;;;;;5094013;28;20068;-70
2022/07/20 08:46:29;;;;;;;25.70;18.65;;;39.60;38.30;;;;;;5094046;28;20052;-70
2022/07/20 08:48:56;;;;;;;27.27;18.55;;;39.00;39.00;;;;;;5094128;28;20079;-70
2022/07/20 08:51:22;;;;;;;25.40;17.35;;;;;;;;;;5094084;28;20131;-69
2022/07/20 08:53:50;;;;;;;26.08;17.92;;;37.10;77.60;;;;;;5093983;28;20479;-71
2022/07/20 08:56:15;;;;;;;21.55;17.52;;;36.80;46.20;;;;;;5093993;28;20043;-69
2022/07/20 08:58:41;;;;;;;24.80;18.13;;;36.40;42.00;;;;;;5093938;28;20039;-69
2022/07/20 09:01:13;;;;;;;24.30;18.00;;;36.00;42.90;;;;;;5092646;28;20055;-73
2022/07/20 09:03:41;;;;;;;24.58;17.58;;;35.70;43.60;;;;;;5092690;28;20073;-73
2022/07/20 09:06:08;;;;;;;22.70;17.38;;;35.30;43.50;;;;;;5094331;28;20552;-73
2022/07/20 09:08:34;;;;;;;30.60;19.20;;;34.90;43.70;;;;;;5092553;28;20044;-72
2022/07/20 09:11:01;;;;;;;25.75;18.88;;;34.80;44.30;;;;;;5094621;28;20123;-75
2022/07/20 09:13:34;;;;;;;24.13;18.52;;;34.40;45.10;;;;;;5076228;28;20047;-74
2022/07/20 09:16:02;;;;;;;23.75;18.25;;;34.30;45.90;;;;;;5092773;28;20484;-73
2022/07/20 09:18:32;;;;;;;23.73;17.02;;;34.20;46.00;;;;;;5093503;28;20097;-73
2022/07/20 09:21:01;;;;;;;22.63;16.30;;;33.90;46.20;;;;;;5094223;28;20130;-73
2022/07/20 09:23:31;;;;;;;20.08;15.02;;;33.80;45.90;;;;;;5092845;28;20081;-73
2022/07/20 09:25:58;;;;;;;22.33;15.70;;;33.80;46.00;;;;;;5093747;28;20052;-73
2022/07/20 09:28:53;;;;;;;21.38;15.05;;;33.60;45.90;;;;;;5093439;28;20036;-74
2022/07/20 09:31:22;;;;;;;20.63;14.95;;;33.50;46.20;;;;;;5093608;28;20059;-69
2022/07/20 09:33:52;;;;;;;16.17;14.48;;;33.30;46.80;;;;;;5093501;28;20131;-69
2022/07/20 09:36:20;;;;;;;19.42;14.77;;;33.20;45.30;;;;;;5092531;28;20044;-70
2022/07/20 09:38:46;;;;;;;25.13;14.73;;;33.00;45.40;;;;;;5093554;28;20048;-70
2022/07/20 09:41:29;;;;;;;21.88;15.05;;;33.10;46.30;;;;;;5093438;28;20044;-70
2022/07/20 09:43:56;;;;;;;24.83;15.55;;;33.00;47.40;;;;;;5093466;28;20052;-74
2022/07/20 09:46:27;;;;;;;23.15;14.95;;;32.90;47.40;;;;;;5094214;28;20056;-71
2022/07/20 09:48:58;;;;;;;20.85;13.50;;;32.70;47.50;;;;;;5093472;28;20051;-71
2022/07/20 09:51:28;;;;;;;22.20;12.32;;;32.50;47.80;;;;;;5094235;28;20052;-71
2022/07/20 09:54:02;;;;;;;20.65;10.98;;;32.20;47.30;;;;;;5093357;28;20040;-71
2022/07/20 09:56:28;;;;;;;21.80;11.93;;;32.00;47.10;;;;;;5093334;28;20483;-71
2022/07/20 09:58:57;;;;;;;17.90;9.93;;;31.90;47.20;;;;;;5093548;28;20499;-73
2022/07/20 10:01:30;;;;;;;16.90;9.65;;;31.80;47.10;;;;;;5092504;28;20067;-72
2022/07/20 10:03:59;;;;;;;22.35;9.10;;;31.70;46.50;;;;;;5093324;28;20048;-73
2022/07/20 10:06:26;;;;;;;16.48;9.45;;;31.60;46.80;;;;;;5093713;28;20075;-71
2022/07/20 10:08:53;;;;;;;20.95;9.32;;;31.50;46.90;;;;;;5092109;28;20048;-70
2022/07/20 10:11:22;;;;;;;16.30;8.88;;;31.50;47.40;;;;;;5092231;28;20448;-70
2022/07/20 10:13:50;;;;;;;15.98;9.63;;;31.40;47.50;;;;;;5092254;28;20099;-70
2022/07/20 10:16:28;;;;;;;16.50;10.43;;;31.40;47.50;;;;;;5092168;28;20135;-72
2022/07/20 10:18:54;;;;;;;15.00;9.20;;;31.20;47.90;;;;;;5093649;28;20105;-70
2022/07/20 10:21:40;;;;;;;13.68;10.18;;;31.20;48.30;;;;;;5093085;28;20040;-70
2022/07/20 10:24:25;;;;;;;15.43;9.68;;;31.10;47.90;;;;;;5093618;28;20095;-71
2022/07/20 10:27:23;;;;;;;17.10;9.70;;;31.00;48.30;;;;;;5093017;28;20075;-70
2022/07/20 10:29:52;;;;;;;15.30;9.77;;;31.00;49.00;;;;;;5093006;28;20101;-71
2022/07/20 10:32:23;;;;;;;17.00;9.90;;;31.00;48.70;;;;;;5092028;28;20094;-71
2022/07/20 10:34:50;;;;;;;14.63;10.15;;;30.80;48.30;;;;;;5092368;28;20044;-74
2022/07/20 10:37:25;;;;;;;16.25;9.77;;;30.80;48.50;;;;;;5096502;28;20040;-72
2022/07/20 10:40:04;;;;;;;15.07;8.82;;;30.70;48.70;;;;;;5096387;28;20048;-72
2022/07/20 10:42:33;;;;;;;15.40;9.27;;;30.80;49.20;;;;;;5096610;28;20087;-72
2022/07/20 10:45:19;;;;;;;12.80;9.30;;;30.80;49.50;;;;;;5096772;28;20483;-73
2022/07/20 10:47:56;;;;;;;15.15;8.75;;;30.80;49.10;;;;;;5096453;28;20439;-72
2022/07/20 10:50:39;;;;;;;16.50;9.82;;;30.70;49.60;;;;;;5096358;28;20090;-72
2022/07/20 10:53:10;;;;;;;17.23;9.30;;;30.80;49.30;;;;;;5096275;28;20052;-76
2022/07/20 10:55:46;;;;;;;18.33;9.68;;;30.70;49.00;;;;;;5096177;28;20164;-72
2022/07/20 10:58:23;;;;;;;16.23;8.98;;;30.70;48.80;;;;;;5096227;28;20036;-72
2022/07/20 11:00:54;;;;;;;13.80;8.32;;;30.70;48.60;;;;;;5096311;28;20098;-72
2022/07/20 11:03:30;;;;;;;16.30;8.88;;;30.80;48.20;;;;;;5095161;28;20052;-72
2022/07/20 11:06:07;;;;;;;13.40;8.13;;;30.70;47.50;;;;;;5078643;28;20048;-72
2022/07/20 11:08:34;;;;;;;13.60;8.00;;;30.70;47.60;;;;;;5096788;28;20063;-72
2022/07/20 11:11:01;;;;;;;16.33;8.70;;;30.60;47.30;;;;;;5094972;28;20522;-72
2022/07/20 11:13:27;;;;;;;12.95;8.40;;;30.60;47.80;;;;;;5094919;28;20549;-72
2022/07/20 11:15:58;;;;;;;14.00;8.77;;;30.60;47.50;;;;;;5095906;28;20051;-72
2022/07/20 11:18:27;;;;;;;13.15;8.63;;;30.60;47.80;;;;;;5095600;28;20477;-72
2022/07/20 11:20:59;;;;;;;15.68;7.18;;;30.60;48.00;;;;;;5095748;28;20050;-72
2022/07/20 11:23:27;;;;;;;16.85;7.65;;;30.50;48.30;;;;;;5095766;28;20549;-72
2022/07/20 11:25:58;;;;;;;16.08;7.78;;;30.60;48.20;;;;;;5095676;28;20052;-73
2022/07/20 11:28:27;;;;;;;12.35;7.22;;;30.60;48.10;;;;;;5096181;28;20047;-73
2022/07/20 11:30:55;;;;;;;14.77;8.27;;;30.60;47.70;;;;;;5096158;28;20175;-72
2022/07/20 11:33:26;;;;;;;20.27;8.05;;;30.50;47.50;;;;;;5095545;28;20071;-72
2022/07/20 11:35:58;;;;;;;12.88;7.55;;;30.50;47.20;;;;;;5095499;28;20055;-72
2022/07/20 11:38:33;;;;;;;13.23;7.93;;;30.40;47.20;;;;;;5094486;28;20440;-72
2022/07/20 11:41:01;;;;;;;14.90;7.53;;;30.40;47.50;;;;;;5096247;28;20101;-72
2022/07/20 11:43:27;;;;;;;13.90;7.78;;;30.30;47.00;;;;;;5094979;28;20496;-72
2022/07/20 11:45:54;;;;;;;12.93;7.82;;;30.30;47.10;;;;;;5096296;28;20052;-72
2022/07/20 11:48:24;;;;;;;10.88;7.63;;;30.20;48.10;;;;;;5094361;28;20148;-73
2022/07/20 11:50:50;;;;;;;13.30;8.00;;;30.20;47.50;;;;;;5095501;28;20048;-72
2022/07/20 11:53:25;;;;;;;16.45;7.88;;;30.20;47.90;;;;;;5094166;28;20172;-73
2022/07/20 11:55:50;;;;;;;10.35;7.13;;;30.20;47.90;;;;;;5094121;28;20051;-72
2022/07/20 11:58:27;;;;;;;10.82;7.70;;;30.10;48.20;;;;;;5095309;28;20044;-73
2022/07/20 12:00:54;;;;;;;12.95;8.38;;;30.20;48.70;;;;;;5095089;28;20055;-72
2022/07/20 12:03:28;;;;;;;11.68;9.32;;;30.20;48.60;;;;;;5094215;28;20127;-72
2022/07/20 12:05:55;;;;;;;14.30;8.57;;;30.20;48.50;;;;;;5095010;28;20148;-73
2022/07/20 12:08:24;;;;;;;15.05;9.05;;;30.20;48.60;;;;;;5094786;28;20036;-72
2022/07/20 12:10:50;;;;;;;15.13;8.80;;;30.20;48.80;;;;;;5094776;28;20052;-73
2022/07/20 12:13:17;;;;;;;17.05;10.18;;;30.20;48.80;;;;;;5094053;28;20044;-75
2022/07/20 12:16:12;;;;;;;17.10;8.93;;;30.10;48.80;;;;;;5095264;28;20123;-72
2022/07/20 12:18:47;;;;;;;12.82;8.98;;;30.00;49.00;;;;;;5090471;28;20094;-73
2022/07/20 12:21:16;;;;;;;13.02;9.10;;;29.90;48.90;;;;;;5094679;28;20092;-72
2022/07/20 12:23:46;;;;;;;11.70;9.10;;;29.90;48.80;;;;;;5095386;28;20076;-72
2022/07/20 12:26:37;;;;;;;14.63;9.10;;;29.80;48.80;;;;;;5094597;28;20084;-72
2022/07/20 12:29:25;;;;;;;13.15;8.45;;;29.80;48.80;;;;;;5094520;28;20528;-72
2022/07/20 12:32:05;;;;;;;11.43;7.72;;;29.70;49.00;;;;;;5094409;28;20165;-72
2022/07/20 12:34:31;;;;;;;10.32;7.25;;;29.70;49.00;;;;;;5094222;28;20052;-72
2022/07/20 12:36:58;;;;;;;11.43;7.20;;;29.70;48.90;;;;;;5094308;28;20054;-74
2022/07/20 12:39:42;;;;;;;12.80;7.07;;;29.50;48.60;;;;;;5093294;28;20105;-73
2022/07/20 12:42:20;;;;;;;10.50;6.75;;;29.50;48.40;;;;;;5093234;28;20399;-70
2022/07/20 12:44:47;;;;;;;10.77;7.03;;;29.50;48.30;;;;;;5093426;28;20439;-73
2022/07/20 12:47:14;;;;;;;10.23;6.80;;;29.50;48.30;;;;;;5094059;28;20040;-73
2022/07/20 12:49:41;;;;;;;11.90;6.43;;;29.50;48.60;;;;;;5094048;28;20044;-71
2022/07/20 12:52:07;;;;;;;9.00;7.03;;;29.50;48.90;;;;;;5094803;28;20036;-73
2022/07/20 12:54:33;;;;;;;11.05;7.13;;;29.40;48.80;;;;;;5093947;28;20048;-74
2022/07/20 12:56:59;;;;;;;9.35;6.28;;;29.40;49.00;;;;;;5093953;28;20044;-70
2022/07/20 12:59:24;;;;;;;12.45;6.55;;;29.40;49.40;;;;;;5094004;28;20113;-73